createdAt,value
2024-02-23T00:00:39.330Z,7.45
2024-02-23T00:03:07.481Z,7.15
2024-02-23T00:05:35.248Z,6.25
2024-02-23T00:08:03.063Z,6.68
2024-02-23T00:10:30.771Z,7.07
2024-02-23T00:12:58.474Z,6.45
2024-02-23T00:15:26.566Z,6.68
2024-02-23T00:17:54.262Z,6.40
2024-02-23T00:20:22.066Z,6.15
2024-02-23T00:22:49.881Z,6.20
2024-02-23T00:25:17.593Z,6.93
2024-02-23T00:27:45.275Z,6.07
2024-02-23T00:30:13.134Z,6.60
2024-02-23T00:32:40.861Z,6.78
2024-02-23T00:35:08.720Z,6.45
2024-02-23T00:37:36.736Z,6.15
2024-02-23T00:40:08.026Z,5.95
2024-02-23T00:42:35.754Z,5.78
2024-02-23T00:45:03.449Z,5.55
2024-02-23T00:47:31.188Z,5.43
2024-02-23T00:49:58.899Z,5.30
2024-02-23T00:52:26.590Z,5.63
2024-02-23T00:54:54.323Z,5.15
2024-02-23T00:57:28.534Z,5.55
2024-02-23T00:59:56.324Z,5.03
2024-02-23T01:02:24.011Z,4.78
2024-02-23T01:04:51.943Z,4.82
2024-02-23T01:07:19.644Z,4.68
2024-02-23T01:09:47.248Z,5.00
2024-02-23T01:12:14.967Z,4.53
2024-02-23T01:14:42.619Z,4.40
2024-02-23T01:17:10.268Z,4.60
2024-02-23T01:19:37.970Z,4.32
2024-02-23T01:22:05.578Z,4.00
2024-02-23T01:24:33.923Z,3.92
2024-02-23T01:27:01.627Z,3.78
2024-02-23T01:29:29.313Z,4.07
2024-02-23T01:31:57.006Z,3.97
2024-02-23T01:34:24.724Z,3.75
2024-02-23T01:36:52.428Z,3.78
2024-02-23T01:39:20.057Z,3.50
2024-02-23T01:41:47.678Z,3.33
2024-02-23T01:44:16.595Z,3.40
2024-02-23T01:46:44.525Z,3.47
2024-02-23T01:49:12.323Z,3.47
2024-02-23T01:51:40.645Z,3.35
2024-02-23T01:54:08.723Z,3.28
2024-02-23T01:56:37.753Z,3.17
2024-02-23T01:59:05.803Z,3.40
2024-02-23T02:01:33.702Z,3.75
2024-02-23T02:04:01.848Z,3.45
2024-02-23T02:06:30.108Z,3.72
2024-02-23T02:08:57.930Z,3.65
2024-02-23T02:11:25.644Z,4.40
2024-02-23T02:13:53.337Z,4.00
2024-02-23T02:16:20.932Z,4.70
2024-02-23T02:18:48.584Z,4.57
2024-02-23T02:21:16.270Z,5.10
2024-02-23T02:23:44.100Z,4.32
2024-02-23T02:26:11.763Z,4.78
2024-02-23T02:28:39.835Z,5.82
2024-02-23T02:31:07.469Z,5.50
2024-02-23T02:33:35.199Z,5.32
2024-02-23T02:36:02.867Z,5.97
2024-02-23T02:38:30.680Z,5.60
2024-02-23T02:41:00.823Z,5.13
2024-02-23T02:43:28.726Z,4.82
2024-02-23T02:45:56.397Z,4.00
2024-02-23T02:48:24.305Z,4.00
2024-02-23T02:50:54.412Z,3.70
2024-02-23T02:53:22.382Z,4.03
2024-02-23T02:55:50.349Z,4.45
2024-02-23T02:58:18.013Z,4.20
2024-02-23T03:00:45.653Z,4.68
2024-02-23T03:03:14.115Z,4.43
2024-02-23T03:05:42.014Z,4.55
2024-02-23T03:08:09.726Z,3.95
2024-02-23T03:10:37.377Z,4.38
2024-02-23T03:13:05.093Z,3.92
2024-02-23T03:15:32.764Z,3.88
2024-02-23T03:18:02.213Z,3.47
2024-02-23T03:20:30.488Z,4.47
2024-02-23T03:22:58.208Z,3.63
2024-02-23T03:25:25.866Z,3.33
2024-02-23T03:27:53.564Z,2.67
2024-02-23T03:30:21.248Z,3.00
2024-02-23T03:32:48.971Z,2.85
2024-02-23T03:35:16.747Z,3.00
2024-02-23T03:37:44.516Z,3.20
2024-02-23T03:40:12.261Z,3.08
2024-02-23T03:42:39.971Z,3.50
2024-02-23T03:45:07.835Z,3.40
2024-02-23T03:47:35.787Z,3.58
2024-02-23T03:50:03.749Z,3.75
2024-02-23T03:52:31.472Z,4.18
2024-02-23T03:54:59.194Z,4.00
2024-02-23T03:57:26.933Z,3.85
2024-02-23T03:59:55.249Z,4.13
2024-02-23T04:02:23.181Z,5.00
2024-02-23T04:04:51.580Z,4.22
2024-02-23T04:07:19.387Z,3.97
2024-02-23T04:09:53.151Z,4.30
2024-02-23T04:12:20.952Z,4.78
2024-02-23T04:14:48.945Z,4.55
2024-02-23T04:17:16.749Z,4.65
2024-02-23T04:19:44.939Z,4.20
2024-02-23T04:22:12.732Z,4.15
2024-02-23T04:24:41.433Z,4.35
2024-02-23T04:27:09.543Z,4.70
2024-02-23T04:29:37.327Z,4.30
2024-02-23T04:32:05.376Z,4.35
2024-02-23T04:34:33.196Z,4.40
2024-02-23T04:37:00.884Z,4.80
2024-02-23T04:39:28.612Z,4.85
2024-02-23T04:41:56.649Z,4.22
2024-02-23T04:44:24.681Z,4.05
2024-02-23T04:46:52.389Z,4.10
2024-02-23T04:49:20.176Z,4.80
2024-02-23T04:51:47.899Z,4.60
2024-02-23T04:54:15.564Z,4.70
2024-02-23T04:56:43.261Z,5.07
2024-02-23T04:59:11.077Z,4.68
2024-02-23T05:01:39.322Z,5.57
2024-02-23T05:04:07.249Z,4.40
2024-02-23T05:06:35.016Z,4.80
2024-02-23T05:09:03.971Z,4.53
2024-02-23T05:11:31.872Z,4.60
2024-02-23T05:13:59.558Z,4.18
2024-02-23T05:16:27.446Z,4.55
2024-02-23T05:18:55.215Z,4.10
2024-02-23T05:21:22.909Z,4.60
2024-02-23T05:23:50.910Z,5.40
2024-02-23T05:26:18.554Z,4.05
2024-02-23T05:28:46.216Z,4.07
2024-02-23T05:31:14.375Z,3.60
2024-02-23T05:33:42.330Z,4.40
2024-02-23T05:36:10.189Z,4.43
2024-02-23T05:38:37.861Z,3.83
2024-02-23T05:41:06.443Z,3.70
2024-02-23T05:43:35.845Z,4.30
2024-02-23T05:46:03.657Z,4.15
2024-02-23T05:48:31.315Z,4.43
2024-02-23T05:50:58.974Z,4.53
2024-02-23T05:53:26.636Z,4.18
2024-02-23T05:55:54.608Z,4.70
2024-02-23T05:58:22.233Z,4.72
2024-02-23T06:00:51.021Z,4.50
2024-02-23T06:06:09.440Z,4.30
2024-02-23T06:08:37.723Z,4.60
2024-02-23T06:11:06.058Z,4.15
2024-02-23T06:13:34.264Z,4.72
2024-02-23T06:16:01.957Z,4.60
2024-02-23T06:18:29.593Z,4.40
2024-02-23T06:20:57.529Z,4.53
2024-02-23T06:23:25.201Z,4.78
2024-02-23T06:25:53.177Z,4.85
2024-02-23T06:28:21.002Z,4.45
2024-02-23T06:30:48.686Z,4.30
2024-02-23T06:33:16.919Z,5.03
2024-02-23T06:35:44.607Z,4.72
2024-02-23T06:38:12.505Z,4.93
2024-02-23T06:40:46.336Z,5.68
2024-02-23T06:43:23.211Z,5.55
2024-02-23T06:45:51.463Z,4.68
2024-02-23T06:48:19.313Z,4.63
2024-02-23T06:50:47.593Z,4.47
2024-02-23T06:53:15.499Z,4.40
2024-02-23T06:55:43.127Z,4.97
2024-02-23T06:58:11.636Z,4.93
2024-02-23T07:00:39.722Z,60.67
2024-02-23T07:03:07.513Z,21.55
2024-02-23T07:05:36.790Z,5.43
2024-02-23T07:08:04.737Z,4.55
2024-02-23T07:10:32.468Z,4.68
2024-02-23T07:13:00.217Z,4.60
2024-02-23T07:15:28.001Z,5.38
2024-02-23T07:17:55.727Z,5.10
2024-02-23T07:20:26.430Z,6.05
2024-02-23T07:22:54.233Z,4.88
2024-02-23T07:25:22.279Z,4.75
2024-02-23T07:27:50.564Z,4.85
2024-02-23T07:30:18.483Z,4.68
2024-02-23T07:32:51.010Z,5.20
2024-02-23T07:35:21.221Z,4.60
2024-02-23T07:37:49.156Z,4.78
2024-02-23T07:40:19.296Z,4.80
2024-02-23T07:42:49.074Z,4.82
2024-02-23T07:45:16.683Z,5.35
2024-02-23T07:47:44.556Z,4.68
2024-02-23T07:50:13.867Z,4.10
2024-02-23T07:52:42.066Z,4.82
2024-02-23T07:55:09.972Z,4.65
2024-02-23T07:57:39.187Z,5.05
2024-02-23T08:00:10.608Z,4.15
2024-02-23T08:02:41.505Z,4.72
2024-02-23T08:05:09.577Z,4.55
2024-02-23T08:07:37.464Z,4.68
2024-02-23T08:10:06.328Z,4.20
2024-02-23T08:12:35.848Z,4.85
2024-02-23T08:15:05.235Z,4.28
2024-02-23T08:17:33.073Z,4.82
2024-02-23T08:20:01.204Z,4.30
2024-02-23T08:22:29.129Z,4.15
2024-02-23T08:24:56.880Z,5.35
2024-02-23T08:27:24.604Z,5.25
2024-02-23T08:29:52.253Z,4.32
2024-02-23T08:32:20.233Z,4.65
2024-02-23T08:34:48.113Z,4.75
2024-02-23T08:37:15.864Z,4.40
2024-02-23T08:39:43.586Z,4.57
2024-02-23T08:42:11.276Z,4.68
2024-02-23T08:44:40.480Z,5.00
2024-02-23T08:47:08.256Z,4.90
2024-02-23T08:49:36.029Z,4.63
2024-02-23T08:52:05.134Z,5.05
2024-02-23T08:54:33.004Z,5.57
2024-02-23T08:57:00.671Z,5.30
2024-02-23T08:59:28.378Z,4.47
2024-02-23T09:01:56.056Z,4.35
2024-02-23T09:04:23.711Z,4.60
2024-02-23T09:06:52.734Z,4.80
2024-02-23T09:09:20.442Z,4.35
2024-02-23T09:11:48.380Z,4.97
2024-02-23T09:14:16.151Z,4.75
2024-02-23T09:16:43.813Z,4.35
2024-02-23T09:19:11.580Z,4.47
2024-02-23T09:21:39.282Z,4.13
2024-02-23T09:24:07.229Z,4.88
2024-02-23T09:26:35.115Z,4.20
2024-02-23T09:29:02.838Z,4.88
2024-02-23T09:31:30.956Z,4.20
2024-02-23T09:33:58.858Z,4.20
2024-02-23T09:36:26.572Z,3.78
2024-02-23T09:38:54.287Z,4.75
2024-02-23T09:41:23.438Z,4.30
2024-02-23T09:43:52.239Z,4.47
2024-02-23T09:46:20.095Z,4.05
2024-02-23T09:48:48.491Z,4.43
2024-02-23T09:51:16.913Z,4.68
2024-02-23T09:53:44.717Z,4.68
2024-02-23T09:56:12.571Z,4.40
2024-02-23T09:58:41.305Z,4.72
2024-02-23T10:01:12.800Z,4.75
2024-02-23T10:03:41.249Z,5.32
2024-02-23T10:06:09.036Z,4.68
2024-02-23T10:08:37.218Z,4.47
2024-02-23T10:11:05.449Z,4.70
2024-02-23T10:13:33.224Z,4.18
2024-02-23T10:16:10.912Z,4.35
2024-02-23T10:18:43.126Z,4.40
2024-02-23T10:21:10.976Z,4.38
2024-02-23T10:23:39.036Z,4.50
2024-02-23T10:26:08.022Z,4.75
2024-02-23T10:28:42.553Z,5.00
2024-02-23T10:31:12.704Z,4.68
2024-02-23T10:33:41.845Z,4.30
2024-02-23T10:36:09.811Z,5.20
2024-02-23T10:38:39.786Z,5.75
2024-02-23T10:41:11.472Z,5.10
2024-02-23T10:43:46.269Z,4.68
2024-02-23T10:46:14.738Z,4.75
2024-02-23T10:48:46.790Z,4.88
2024-02-23T10:51:20.374Z,4.38
2024-02-23T10:53:51.187Z,5.45
2024-02-23T10:56:19.275Z,5.32
2024-02-23T10:58:47.350Z,5.65
2024-02-23T11:01:15.591Z,5.13
2024-02-23T11:03:44.540Z,5.57
2024-02-23T11:06:12.431Z,9.55
2024-02-23T11:08:40.772Z,5.25
2024-02-23T11:11:12.713Z,5.35
2024-02-23T11:13:40.975Z,5.82
2024-02-23T11:16:12.949Z,9.02
2024-02-23T11:18:42.816Z,5.13
2024-02-23T11:21:13.698Z,4.38
2024-02-23T11:23:53.007Z,4.38
2024-02-23T11:26:20.771Z,3.88
2024-02-23T11:28:54.454Z,13.63
2024-02-23T11:31:23.040Z,23.15
2024-02-23T11:33:51.475Z,4.47
2024-02-23T11:36:32.422Z,4.18
2024-02-23T11:39:01.361Z,3.80
2024-02-23T11:41:29.861Z,4.00
2024-02-23T11:43:59.361Z,3.95
2024-02-23T11:46:27.201Z,3.67
2024-02-23T11:48:55.667Z,3.63
2024-02-23T11:51:28.494Z,4.05
2024-02-23T11:53:59.589Z,3.70
2024-02-23T11:56:27.573Z,3.83
2024-02-23T11:58:56.553Z,4.28
2024-02-23T12:01:24.283Z,3.80
2024-02-23T12:03:52.062Z,6.80
2024-02-23T12:06:19.904Z,4.63
2024-02-23T12:08:47.932Z,5.68
2024-02-23T12:11:15.998Z,10.32
2024-02-23T12:13:43.862Z,4.78
2024-02-23T12:16:11.645Z,3.70
2024-02-23T12:18:39.419Z,4.00
2024-02-23T12:21:07.821Z,3.90
2024-02-23T12:23:41.560Z,3.30
2024-02-23T12:26:09.792Z,4.10
2024-02-23T12:28:38.006Z,3.33
2024-02-23T12:31:06.186Z,3.83
2024-02-23T12:33:38.890Z,2.92
2024-02-23T12:36:06.836Z,2.75
2024-02-23T12:38:35.010Z,2.60
2024-02-23T12:41:03.744Z,2.13
2024-02-23T12:43:31.444Z,2.05
2024-02-23T12:45:59.655Z,1.90
2024-02-23T12:48:27.329Z,2.30
2024-02-23T12:50:54.988Z,2.70
2024-02-23T12:53:34.003Z,2.50
2024-02-23T12:56:03.521Z,3.35
2024-02-23T12:58:31.776Z,2.80
2024-02-23T13:00:59.671Z,2.70
2024-02-23T13:03:31.004Z,2.63
2024-02-23T13:05:59.416Z,3.60
2024-02-23T13:08:28.201Z,3.08
2024-02-23T13:10:56.294Z,3.58
2024-02-23T13:13:24.298Z,3.42
2024-02-23T13:15:52.925Z,4.10
2024-02-23T13:18:21.016Z,3.47
2024-02-23T13:20:49.400Z,3.67
2024-02-23T13:23:17.505Z,3.85
2024-02-23T13:25:47.103Z,4.05
2024-02-23T13:28:14.906Z,4.10
2024-02-23T13:30:42.516Z,8.35
2024-02-23T13:33:12.584Z,6.28
2024-02-23T13:35:41.169Z,6.13
2024-02-23T13:38:10.304Z,4.85
2024-02-23T13:40:38.092Z,4.75
2024-02-23T13:43:05.871Z,4.38
2024-02-23T13:45:33.579Z,4.78
2024-02-23T13:48:02.399Z,4.72
2024-02-23T13:50:30.568Z,4.78
2024-02-23T13:52:58.691Z,4.63
2024-02-23T13:55:26.598Z,5.30
2024-02-23T13:57:54.333Z,5.00
2024-02-23T14:00:22.179Z,5.78
2024-02-23T14:02:50.239Z,5.68
2024-02-23T14:05:19.697Z,5.85
2024-02-23T14:07:47.643Z,6.78
2024-02-23T14:10:15.541Z,6.90
2024-02-23T14:12:43.457Z,7.07
2024-02-23T14:15:14.405Z,6.85
2024-02-23T14:17:42.141Z,7.93
2024-02-23T14:20:10.416Z,9.13
2024-02-23T14:22:38.262Z,9.88
2024-02-23T14:25:06.059Z,10.63
2024-02-23T14:27:33.715Z,8.73
2024-02-23T14:30:01.489Z,8.82
2024-02-23T14:32:29.272Z,9.48
2024-02-23T14:34:58.739Z,7.85
2024-02-23T14:37:26.647Z,8.45
2024-02-23T14:39:54.365Z,7.75
2024-02-23T14:42:22.067Z,8.27
2024-02-23T14:44:51.249Z,8.45
2024-02-23T14:47:22.265Z,8.68
2024-02-23T14:49:54.376Z,8.90
2024-02-23T14:52:22.083Z,9.07
2024-02-23T14:54:49.778Z,8.65
2024-02-23T14:57:17.423Z,9.63
2024-02-23T14:59:48.012Z,14.10
2024-02-23T15:02:20.471Z,15.38
2024-02-23T15:04:48.330Z,16.10
2024-02-23T15:07:16.310Z,14.88
2024-02-23T15:09:44.004Z,14.98
2024-02-23T15:12:12.807Z,13.63
2024-02-23T15:14:40.728Z,14.20
2024-02-23T15:17:08.961Z,13.25
2024-02-23T15:19:36.785Z,13.35
2024-02-23T15:22:04.624Z,14.00
2024-02-23T15:24:32.246Z,13.18
2024-02-23T15:27:00.588Z,15.25
2024-02-23T15:29:28.330Z,16.15
2024-02-23T15:31:56.048Z,15.18
2024-02-23T15:34:23.861Z,14.52
2024-02-23T15:36:51.599Z,14.82
2024-02-23T15:39:19.414Z,15.45
2024-02-23T15:41:47.473Z,14.50
2024-02-23T15:44:15.100Z,15.10
2024-02-23T15:46:42.896Z,14.18
2024-02-23T15:49:21.762Z,13.88
2024-02-23T15:52:01.342Z,13.75
2024-02-23T15:54:31.309Z,13.70
2024-02-23T15:56:59.433Z,12.45
2024-02-23T15:59:27.729Z,13.50
2024-02-23T16:01:56.577Z,14.80
2024-02-23T16:04:24.637Z,14.00
2024-02-23T16:06:52.374Z,15.23
2024-02-23T16:09:20.027Z,14.73
2024-02-23T16:11:48.601Z,15.18
2024-02-23T16:14:17.500Z,14.82
2024-02-23T16:16:45.490Z,15.80
2024-02-23T16:19:13.353Z,16.75
2024-02-23T16:21:47.004Z,15.57
2024-02-23T16:24:14.695Z,15.27
2024-02-23T16:26:42.486Z,18.73
2024-02-23T16:29:10.203Z,14.95
2024-02-23T16:31:38.357Z,15.52
2024-02-23T16:34:06.335Z,14.45
2024-02-23T16:36:35.046Z,15.55
2024-02-23T16:39:04.738Z,15.35
2024-02-23T16:41:32.470Z,15.45
2024-02-23T16:44:00.185Z,15.40
2024-02-23T16:46:27.828Z,15.55
2024-02-23T16:48:55.518Z,15.55
2024-02-23T16:51:23.118Z,15.57
2024-02-23T16:53:50.929Z,16.38
2024-02-23T16:56:18.722Z,15.63
2024-02-23T16:58:46.382Z,16.00
2024-02-23T17:01:14.244Z,15.43
2024-02-23T17:03:41.993Z,15.63
2024-02-23T17:06:09.888Z,15.52
2024-02-23T17:08:37.857Z,16.02
2024-02-23T17:11:07.553Z,16.10
2024-02-23T17:13:35.358Z,18.88
2024-02-23T17:16:03.597Z,18.30
2024-02-23T17:18:31.338Z,16.42
2024-02-23T17:21:01.468Z,27.38
2024-02-23T17:23:29.811Z,28.80
2024-02-23T17:25:57.540Z,22.08
2024-02-23T17:28:25.276Z,31.52
2024-02-23T17:30:53.000Z,21.15
2024-02-23T17:33:20.979Z,19.02
2024-02-23T17:35:49.863Z,17.92
2024-02-23T17:38:17.639Z,19.30
2024-02-23T17:40:47.332Z,19.38
2024-02-23T17:43:15.034Z,17.48
2024-02-23T17:45:42.625Z,16.65
2024-02-23T17:48:10.474Z,16.67
2024-02-23T17:50:38.872Z,19.42
2024-02-23T17:53:06.667Z,18.70
2024-02-23T17:55:34.320Z,20.02
2024-02-23T17:58:11.883Z,19.45
2024-02-23T18:00:44.002Z,19.42
2024-02-23T18:03:11.671Z,18.25
2024-02-23T18:05:39.461Z,20.80
2024-02-23T18:08:07.389Z,23.73
2024-02-23T18:10:35.109Z,23.60
2024-02-23T18:13:03.622Z,21.88
2024-02-23T18:15:31.319Z,20.95
2024-02-23T18:17:59.232Z,21.63
2024-02-23T18:20:27.106Z,21.95
2024-02-23T18:22:54.797Z,21.40
2024-02-23T18:25:22.509Z,22.73
2024-02-23T18:27:50.794Z,20.85
2024-02-23T18:30:18.557Z,20.38
2024-02-23T18:32:46.338Z,19.70
2024-02-23T18:35:14.482Z,76.78
2024-02-23T18:37:43.048Z,26.27
2024-02-23T18:40:12.207Z,20.92
2024-02-23T18:42:39.831Z,19.83
2024-02-23T18:45:07.758Z,20.17
2024-02-23T18:47:35.483Z,19.30
2024-02-23T18:50:03.414Z,17.33
2024-02-23T18:52:31.144Z,18.15
2024-02-23T18:55:00.031Z,17.70
2024-02-23T18:57:28.277Z,18.10
2024-02-23T18:59:55.929Z,18.70
2024-02-23T19:02:23.574Z,19.25
2024-02-23T19:04:51.282Z,17.92
2024-02-23T19:07:19.712Z,18.92
2024-02-23T19:09:47.451Z,18.95
2024-02-23T19:12:15.460Z,19.20
2024-02-23T19:14:43.212Z,19.08
2024-02-23T19:17:11.550Z,19.92
2024-02-23T19:19:39.301Z,20.63
2024-02-23T19:22:06.939Z,21.90
2024-02-23T19:24:34.732Z,21.42
2024-02-23T19:27:02.420Z,22.60
2024-02-23T19:29:30.219Z,22.58
2024-02-23T19:31:57.928Z,20.63
2024-02-23T19:34:25.663Z,21.13
2024-02-23T19:36:55.344Z,19.58
2024-02-23T19:39:23.112Z,18.63
2024-02-23T19:41:50.860Z,21.48
2024-02-23T19:44:18.637Z,19.40
2024-02-23T19:46:46.983Z,18.67
2024-02-23T19:49:14.773Z,17.30
2024-02-23T19:51:42.543Z,17.15
2024-02-23T19:54:10.280Z,17.65
2024-02-23T19:56:38.180Z,16.52
2024-02-23T19:59:06.092Z,19.80
2024-02-23T20:01:33.795Z,19.65
2024-02-23T20:04:01.488Z,18.00
2024-02-23T20:06:29.258Z,18.02
2024-02-23T20:08:56.898Z,19.27
2024-02-23T20:11:24.737Z,17.95
2024-02-23T20:13:52.494Z,19.20
2024-02-23T20:16:20.183Z,18.20
2024-02-23T20:18:47.968Z,19.17
2024-02-23T20:21:16.011Z,17.65
2024-02-23T20:23:43.825Z,18.65
2024-02-23T20:26:11.598Z,18.75
2024-02-23T20:28:39.304Z,18.63
2024-02-23T20:31:07.581Z,19.73
2024-02-23T20:33:35.548Z,18.70
2024-02-23T20:36:03.368Z,18.98
2024-02-23T20:38:31.680Z,18.98
2024-02-23T20:40:59.458Z,20.02
2024-02-23T20:43:27.632Z,19.80
2024-02-23T20:45:57.217Z,18.55
2024-02-23T20:48:24.955Z,19.75
2024-02-23T20:50:52.774Z,19.33
2024-02-23T20:53:20.474Z,19.90
2024-02-23T20:55:49.978Z,21.10
2024-02-23T20:58:18.734Z,20.90
2024-02-23T21:00:48.711Z,20.60
2024-02-23T21:03:17.630Z,19.27
2024-02-23T21:05:45.460Z,20.42
2024-02-23T21:08:13.291Z,20.00
2024-02-23T21:10:43.996Z,20.92
2024-02-23T21:13:12.030Z,21.83
2024-02-23T21:15:39.703Z,21.52
2024-02-23T21:18:11.907Z,19.55
2024-02-23T21:20:39.692Z,21.15
2024-02-23T21:23:07.414Z,21.27
2024-02-23T21:25:35.101Z,22.38
2024-02-23T21:28:03.782Z,21.02
2024-02-23T21:30:31.444Z,18.08
2024-02-23T21:32:59.428Z,16.77
2024-02-23T21:35:27.163Z,15.48
2024-02-23T21:37:54.925Z,16.80
2024-02-23T21:40:22.843Z,17.60
2024-02-23T21:42:50.443Z,17.38
2024-02-23T21:45:18.052Z,19.23
2024-02-23T21:47:45.983Z,19.52
2024-02-23T21:50:15.362Z,19.90
2024-02-23T21:52:45.809Z,20.48
2024-02-23T21:55:13.479Z,20.67
2024-02-23T21:57:41.088Z,21.80
2024-02-23T22:00:09.159Z,20.90
2024-02-23T22:02:37.880Z,20.55
2024-02-23T22:05:05.954Z,20.33
2024-02-23T22:07:35.323Z,19.65
2024-02-23T22:10:03.310Z,19.17
2024-02-23T22:12:31.151Z,19.88
2024-02-23T22:15:00.290Z,20.58
2024-02-23T22:17:28.528Z,20.92
2024-02-23T22:19:56.251Z,20.85
2024-02-23T22:22:26.642Z,22.13
2024-02-23T22:24:57.945Z,22.77
2024-02-23T22:27:25.674Z,23.00
2024-02-23T22:29:53.501Z,21.63
2024-02-23T22:32:21.783Z,22.05
2024-02-23T22:34:49.741Z,23.00
2024-02-23T22:37:17.499Z,23.52
2024-02-23T22:39:45.310Z,23.25
2024-02-23T22:42:13.118Z,22.80
2024-02-23T22:44:40.864Z,24.08
2024-02-23T22:47:08.622Z,23.55
2024-02-23T22:49:38.728Z,24.58
2024-02-23T22:52:06.834Z,24.35
2024-02-23T22:54:35.194Z,25.45
2024-02-23T22:57:02.904Z,23.88
2024-02-23T22:59:30.583Z,24.42
2024-02-23T23:01:58.432Z,23.92
2024-02-23T23:04:28.534Z,24.98
2024-02-23T23:06:56.545Z,23.20
2024-02-23T23:09:24.349Z,21.67
2024-02-23T23:11:52.137Z,24.25
2024-02-23T23:14:19.991Z,23.85
2024-02-23T23:16:47.647Z,23.65
2024-02-23T23:19:17.405Z,24.77
2024-02-23T23:21:46.684Z,24.95
2024-02-23T23:24:14.354Z,25.45
2024-02-23T23:26:42.315Z,25.15
2024-02-23T23:29:10.113Z,25.08
2024-02-23T23:31:38.040Z,24.70
2024-02-23T23:34:05.825Z,24.52
2024-02-23T23:36:33.583Z,25.05
2024-02-23T23:39:01.357Z,25.33
2024-02-23T23:41:29.194Z,23.65
2024-02-23T23:43:56.899Z,24.52
2024-02-23T23:46:24.568Z,23.88
2024-02-23T23:48:52.260Z,22.52
2024-02-23T23:51:19.977Z,22.83
2024-02-23T23:53:49.139Z,22.05
2024-02-23T23:56:16.840Z,22.33
2024-02-23T23:58:44.531Z,22.25
